createdAt,value
2022-08-31T04:47:36.977Z,58.81
2022-08-31T04:52:33.394Z,58.67
2022-08-31T04:57:31.357Z,58.60
2022-08-31T05:02:27.753Z,58.70
2022-08-31T05:07:25.611Z,58.67
2022-08-31T05:12:22.870Z,58.80
2022-08-31T05:17:19.304Z,59.10
2022-08-31T05:22:15.745Z,58.86
2022-08-31T05:27:12.187Z,58.85
2022-08-31T05:32:08.733Z,58.95
2022-08-31T05:37:05.355Z,58.76
2022-08-31T05:42:02.179Z,58.96
2022-08-31T05:47:04.000Z,58.82
2022-08-31T05:52:00.947Z,59.08
2022-08-31T05:57:00.984Z,58.99
2022-08-31T06:01:57.993Z,59.25
2022-08-31T06:06:54.720Z,58.92
2022-08-31T06:11:51.584Z,59.17
2022-08-31T06:16:47.886Z,59.24
2022-08-31T06:21:50.099Z,58.83
2022-08-31T06:26:57.887Z,58.87
2022-08-31T06:31:55.693Z,58.74
2022-08-31T06:36:52.096Z,58.70
2022-08-31T06:41:49.152Z,58.39
2022-08-31T06:46:47.236Z,58.47
2022-08-31T06:51:44.170Z,57.76
2022-08-31T06:56:40.512Z,57.40
2022-08-31T07:01:36.954Z,57.99
2022-08-31T07:06:42.725Z,57.57
2022-08-31T07:11:44.382Z,57.80
2022-08-31T07:16:41.656Z,57.58
2022-08-31T07:21:41.740Z,57.17
2022-08-31T07:26:39.650Z,57.18
2022-08-31T07:31:46.389Z,57.03
2022-08-31T07:37:02.155Z,56.47
2022-08-31T07:42:10.452Z,56.17
2022-08-31T07:47:11.958Z,56.09
2022-08-31T07:52:11.309Z,56.05
2022-08-31T07:57:07.641Z,55.58
2022-08-31T08:02:04.726Z,55.67
2022-08-31T08:07:05.774Z,55.60
2022-08-31T08:12:08.457Z,55.04
2022-08-31T08:17:05.469Z,54.77
2022-08-31T08:22:02.851Z,54.50
2022-08-31T08:26:59.247Z,54.34
2022-08-31T08:31:56.685Z,54.54
2022-08-31T08:36:53.083Z,54.18
2022-08-31T08:41:49.409Z,54.04
2022-08-31T08:46:51.136Z,54.40
2022-08-31T08:51:49.600Z,53.86
2022-08-31T08:56:48.859Z,53.60
2022-08-31T09:01:47.075Z,53.19
2022-08-31T09:06:54.655Z,53.19
2022-08-31T09:11:54.934Z,53.01
2022-08-31T09:17:09.701Z,52.39
2022-08-31T09:22:07.836Z,51.91
2022-08-31T09:27:17.843Z,51.51
2022-08-31T09:32:17.856Z,51.28
2022-08-31T09:37:16.291Z,51.28
2022-08-31T09:42:20.418Z,51.12
2022-08-31T09:47:48.204Z,50.63
2022-08-31T09:53:03.384Z,50.57
2022-08-31T09:58:03.060Z,50.18
2022-08-31T10:03:20.569Z,50.30
2022-08-31T10:08:35.957Z,49.90
2022-08-31T10:13:34.197Z,50.01
2022-08-31T10:18:45.024Z,49.32
2022-08-31T10:23:54.402Z,48.95
2022-08-31T10:28:54.539Z,48.01
2022-08-31T10:34:13.051Z,48.53
2022-08-31T10:39:15.801Z,48.18
2022-08-31T10:44:17.886Z,47.95
2022-08-31T10:49:14.188Z,47.79
2022-08-31T10:54:13.541Z,47.50
2022-08-31T10:59:28.633Z,47.81
2022-08-31T11:04:37.329Z,47.45
2022-08-31T11:10:03.124Z,47.68
2022-08-31T11:15:08.749Z,47.86
2022-08-31T11:20:23.805Z,47.27
2022-08-31T11:25:24.927Z,47.60
2022-08-31T11:30:24.320Z,47.40
2022-08-31T11:35:39.208Z,47.29
2022-08-31T11:40:43.630Z,47.20
2022-08-31T11:45:40.896Z,46.85
2022-08-31T11:50:56.057Z,46.98
2022-08-31T11:55:52.544Z,46.72
2022-08-31T12:01:02.913Z,46.14
2022-08-31T12:05:59.236Z,45.78
2022-08-31T12:11:04.335Z,45.82
2022-08-31T12:16:04.030Z,45.34
2022-08-31T12:21:21.941Z,45.49
2022-08-31T12:26:41.757Z,45.73
2022-08-31T12:31:40.235Z,45.35
2022-08-31T12:36:36.990Z,45.26
2022-08-31T12:41:33.326Z,44.55
2022-08-31T12:46:43.250Z,44.87
2022-08-31T12:51:46.570Z,44.62
2022-08-31T12:56:51.839Z,44.65
2022-08-31T13:01:48.792Z,44.73
2022-08-31T13:06:48.117Z,44.21
2022-08-31T13:11:50.077Z,44.43
2022-08-31T13:16:48.810Z,44.66
2022-08-31T13:21:48.930Z,44.82
2022-08-31T13:26:45.418Z,44.42
2022-08-31T13:31:49.551Z,44.61
2022-08-31T13:36:53.787Z,44.11
2022-08-31T13:42:05.834Z,44.04
2022-08-31T13:47:04.253Z,43.99
2022-08-31T13:52:01.298Z,44.36
2022-08-31T13:57:08.848Z,43.90
2022-08-31T14:02:19.444Z,43.79
2022-08-31T14:07:43.703Z,43.74
2022-08-31T14:12:47.181Z,43.75
2022-08-31T14:18:24.112Z,43.84
2022-08-31T14:23:24.497Z,43.65
2022-08-31T14:28:39.697Z,43.40
2022-08-31T14:33:36.420Z,43.42
2022-08-31T14:38:32.744Z,43.05
2022-08-31T14:43:29.037Z,43.31
2022-08-31T14:48:26.780Z,43.12
2022-08-31T14:53:23.360Z,42.95
2022-08-31T14:58:19.921Z,42.71
2022-08-31T15:03:16.412Z,42.09
2022-08-31T15:08:12.768Z,41.84
2022-08-31T15:13:09.498Z,41.71
2022-08-31T15:18:06.428Z,41.63
2022-08-31T15:23:03.452Z,41.86
2022-08-31T15:28:01.513Z,41.61
2022-08-31T15:32:57.920Z,41.46
2022-08-31T15:37:58.632Z,41.36
2022-08-31T15:42:55.111Z,41.57
2022-08-31T15:48:09.884Z,41.51
2022-08-31T15:53:09.488Z,41.68
2022-08-31T15:58:07.733Z,41.67
2022-08-31T16:03:05.071Z,41.88
2022-08-31T16:08:02.116Z,41.59
2022-08-31T16:12:58.415Z,41.85
2022-08-31T16:17:57.374Z,41.53
2022-08-31T16:22:53.699Z,41.56
2022-08-31T16:27:50.499Z,41.53
2022-08-31T16:32:50.442Z,41.70
2022-08-31T16:37:50.331Z,41.80
2022-08-31T16:42:46.692Z,42.18
2022-08-31T16:47:43.084Z,42.13
2022-08-31T16:52:39.445Z,41.91
2022-08-31T16:57:35.793Z,42.18
2022-08-31T17:02:33.076Z,42.37
2022-08-31T17:07:29.444Z,42.05
2022-08-31T17:12:27.136Z,42.45
2022-08-31T17:17:24.814Z,42.53
2022-08-31T17:22:30.008Z,42.39
2022-08-31T17:27:29.171Z,42.70
2022-08-31T17:32:26.094Z,42.56
2022-08-31T17:37:27.649Z,42.82
2022-08-31T17:42:26.705Z,42.90
2022-08-31T17:47:23.815Z,42.94
2022-08-31T17:52:21.435Z,43.10
2022-08-31T17:57:19.047Z,43.22
2022-08-31T18:02:17.422Z,42.89
2022-08-31T18:07:14.778Z,43.03
2022-08-31T18:12:11.238Z,43.49
2022-08-31T18:17:09.980Z,43.31
2022-08-31T18:22:06.804Z,43.36
2022-08-31T18:27:04.916Z,43.55
2022-08-31T18:32:04.402Z,43.72
2022-08-31T18:37:02.177Z,43.67
2022-08-31T18:42:16.984Z,44.04
2022-08-31T18:47:13.901Z,44.06
2022-08-31T18:52:15.996Z,44.15
2022-08-31T18:57:12.460Z,44.07
2022-08-31T19:02:08.998Z,44.35
2022-08-31T19:07:05.948Z,44.46
2022-08-31T19:12:02.751Z,44.68
2022-08-31T19:17:04.006Z,44.62
2022-08-31T19:22:01.214Z,44.97
2022-08-31T19:26:58.983Z,45.02
2022-08-31T19:31:55.932Z,45.11
2022-08-31T19:36:54.611Z,45.50
2022-08-31T19:41:53.859Z,45.22
2022-08-31T19:46:53.326Z,45.35
2022-08-31T19:51:51.824Z,45.39
2022-08-31T19:56:48.264Z,45.64
2022-08-31T20:01:45.374Z,45.73
2022-08-31T20:06:41.826Z,45.89
2022-08-31T20:11:38.180Z,45.94
2022-08-31T20:16:35.456Z,46.12
2022-08-31T20:21:34.494Z,46.31
2022-08-31T20:26:33.298Z,46.45
2022-08-31T20:31:35.023Z,46.82
2022-08-31T20:36:34.591Z,46.92
2022-08-31T20:55:29.939Z,47.38
2022-08-31T20:59:59.562Z,47.45
2022-08-31T21:06:51.950Z,47.81
2022-08-31T22:10:44.372Z,49.18
2022-08-31T22:16:46.171Z,49.56
2022-08-31T22:50:50.714Z,50.38
2022-08-31T23:13:49.863Z,51.08
2022-08-31T23:19:53.521Z,51.51
2022-08-31T23:25:28.150Z,51.50
2022-08-31T23:43:46.830Z,52.06
